createdAt,value
2022-10-19T03:32:50.455Z,14.43
2022-10-19T03:35:23.239Z,14.10
2022-10-19T03:37:56.269Z,14.57
2022-10-19T03:40:29.086Z,14.70
2022-10-19T03:43:01.912Z,15.23
2022-10-19T03:45:34.831Z,13.70
2022-10-19T03:48:08.399Z,15.07
2022-10-19T03:50:41.199Z,14.37
2022-10-19T03:53:14.994Z,14.83
2022-10-19T03:55:47.791Z,15.37
2022-10-19T03:58:21.468Z,13.97
2022-10-19T04:00:54.207Z,18.75
2022-10-19T04:03:27.399Z,14.97
2022-10-19T04:06:18.212Z,14.97
2022-10-19T04:08:54.504Z,14.20
2022-10-19T04:11:29.794Z,13.73
2022-10-19T04:14:03.213Z,14.80
2022-10-19T04:16:36.401Z,13.73
2022-10-19T04:19:13.428Z,14.60
2022-10-19T04:21:48.899Z,13.57
2022-10-19T04:24:21.922Z,13.87
2022-10-19T04:26:55.991Z,12.60
2022-10-19T04:29:30.125Z,14.23
2022-10-19T04:32:03.707Z,14.90
2022-10-19T04:34:39.907Z,14.37
2022-10-19T04:37:13.148Z,15.37
2022-10-19T04:39:46.054Z,13.80
2022-10-19T04:42:18.820Z,14.60
2022-10-19T04:44:51.748Z,18.75
2022-10-19T04:47:24.791Z,14.63
2022-10-19T04:49:57.686Z,14.33
2022-10-19T04:52:31.074Z,14.43
2022-10-19T04:55:04.232Z,13.90
2022-10-19T04:57:37.260Z,14.47
2022-10-19T05:00:10.872Z,12.87
2022-10-19T05:02:45.478Z,16.83
2022-10-19T05:05:18.702Z,14.23
2022-10-19T05:07:51.415Z,13.97
2022-10-19T05:10:24.323Z,13.33
2022-10-19T05:12:57.054Z,14.57
2022-10-19T05:15:30.623Z,12.93
2022-10-19T05:18:03.567Z,13.30
2022-10-19T05:20:36.436Z,13.17
2022-10-19T05:23:09.217Z,13.30
2022-10-19T05:25:42.015Z,12.53
2022-10-19T05:28:14.859Z,12.67
2022-10-19T05:30:49.004Z,12.20
2022-10-19T05:33:22.210Z,12.60
2022-10-19T05:35:54.974Z,12.10
2022-10-19T05:38:29.683Z,13.23
2022-10-19T05:41:02.544Z,15.43
2022-10-19T05:43:35.282Z,13.37
2022-10-19T05:46:10.928Z,11.50
2022-10-19T05:48:44.133Z,11.13
2022-10-19T05:51:22.197Z,12.37
2022-10-19T05:53:57.613Z,12.23
2022-10-19T05:56:31.826Z,11.37
2022-10-19T05:59:06.991Z,11.10
2022-10-19T06:01:39.879Z,10.53
2022-10-19T06:04:14.771Z,11.83
2022-10-19T06:06:47.672Z,11.90
2022-10-19T06:09:20.437Z,11.83
2022-10-19T06:11:53.263Z,9.80
2022-10-19T06:14:26.003Z,10.37
2022-10-19T06:16:58.857Z,12.53
2022-10-19T06:19:31.571Z,11.47
2022-10-19T06:22:04.403Z,12.27
2022-10-19T06:24:37.435Z,10.90
2022-10-19T06:27:10.316Z,11.60
2022-10-19T06:29:43.087Z,11.10
2022-10-19T06:32:15.928Z,11.57
2022-10-19T06:34:49.986Z,11.53
2022-10-19T06:37:23.798Z,11.33
2022-10-19T06:39:56.537Z,10.73
2022-10-19T06:42:29.470Z,10.67
2022-10-19T06:45:02.164Z,10.37
2022-10-19T06:47:35.729Z,13.38
2022-10-19T06:50:08.907Z,10.73
2022-10-19T06:52:41.787Z,10.90
2022-10-19T06:55:14.989Z,10.90
2022-10-19T06:57:47.844Z,10.37
2022-10-19T07:00:20.650Z,10.67
2022-10-19T07:02:53.538Z,11.43
2022-10-19T07:05:26.461Z,11.60
2022-10-19T07:07:59.335Z,10.40
2022-10-19T07:10:32.118Z,10.17
2022-10-19T07:13:05.036Z,9.67
2022-10-19T07:15:37.903Z,9.60
2022-10-19T07:18:10.897Z,9.70
2022-10-19T07:20:53.220Z,9.80
2022-10-19T07:23:27.438Z,9.43
2022-10-19T07:26:06.272Z,9.03
2022-10-19T07:28:40.605Z,9.17
2022-10-19T07:31:17.811Z,12.70
2022-10-19T07:33:56.413Z,9.93
2022-10-19T07:36:31.084Z,9.87
2022-10-19T07:39:06.580Z,10.07
2022-10-19T07:41:39.614Z,8.87
2022-10-19T07:44:15.588Z,11.95
2022-10-19T07:46:48.997Z,9.40
2022-10-19T07:49:22.339Z,8.00
2022-10-19T07:51:55.985Z,9.30
2022-10-19T07:54:29.175Z,9.07
2022-10-19T07:57:01.953Z,8.53
2022-10-19T07:59:34.839Z,9.00
2022-10-19T08:02:15.792Z,8.87
2022-10-19T08:05:00.182Z,9.27
2022-10-19T08:07:34.335Z,8.43
2022-10-19T08:10:07.629Z,8.53
2022-10-19T08:12:40.533Z,8.17
2022-10-19T08:15:13.372Z,8.03
2022-10-19T08:17:46.210Z,8.23
2022-10-19T08:20:19.302Z,8.17
2022-10-19T08:22:56.390Z,8.50
2022-10-19T08:25:31.709Z,8.93
2022-10-19T08:28:04.653Z,8.03
2022-10-19T08:30:37.833Z,8.33
2022-10-19T08:33:17.811Z,8.47
2022-10-19T08:35:50.841Z,8.87
2022-10-19T08:38:23.562Z,10.60
2022-10-19T08:40:57.784Z,8.50
2022-10-19T08:43:38.759Z,8.80
2022-10-19T08:46:18.450Z,8.80
2022-10-19T08:48:52.364Z,8.03
2022-10-19T08:51:25.814Z,8.80
2022-10-19T08:54:00.369Z,8.20
2022-10-19T08:57:14.787Z,7.60
2022-10-19T08:59:59.656Z,9.00
2022-10-19T09:02:51.430Z,9.00
2022-10-19T09:05:41.263Z,7.33
2022-10-19T09:08:17.762Z,8.10
2022-10-19T09:10:53.849Z,7.47
2022-10-19T09:14:04.163Z,7.67
2022-10-19T09:16:38.076Z,8.20
2022-10-19T09:19:29.088Z,8.60
2022-10-19T09:22:12.859Z,10.32
2022-10-19T09:24:51.795Z,9.47
2022-10-19T09:27:38.909Z,8.17
2022-10-19T09:30:22.219Z,8.50
2022-10-19T09:33:03.547Z,8.20
2022-10-19T09:35:43.229Z,8.40
2022-10-19T09:38:19.744Z,7.43
2022-10-19T09:40:52.677Z,6.50
2022-10-19T09:43:27.952Z,7.10
2022-10-19T09:46:19.671Z,7.17
2022-10-19T09:48:53.622Z,6.73
2022-10-19T09:51:26.390Z,7.17
2022-10-19T09:53:59.702Z,7.87
2022-10-19T09:56:38.050Z,6.87
2022-10-19T09:59:22.822Z,6.97
2022-10-19T10:02:19.502Z,6.57
2022-10-19T10:05:03.274Z,6.33
2022-10-19T10:07:39.114Z,7.00
2022-10-19T10:10:26.846Z,6.80
2022-10-19T10:13:05.356Z,6.57
2022-10-19T10:15:49.793Z,7.07
2022-10-19T10:18:25.164Z,6.53
2022-10-19T10:21:21.602Z,6.17
2022-10-19T10:24:00.939Z,5.97
2022-10-19T10:26:49.197Z,6.50
2022-10-19T10:29:32.892Z,6.95
2022-10-19T10:32:16.808Z,5.70
2022-10-19T10:35:00.808Z,5.03
2022-10-19T10:37:45.070Z,5.30
2022-10-19T10:40:30.715Z,5.10
2022-10-19T10:43:13.385Z,5.90
2022-10-19T10:45:53.082Z,5.47
2022-10-19T10:48:33.412Z,5.47
2022-10-19T10:51:39.904Z,5.30
2022-10-19T10:54:26.587Z,3.93
2022-10-19T10:57:04.296Z,4.50
2022-10-19T10:59:59.712Z,4.53
2022-10-19T11:02:43.007Z,4.53
2022-10-19T11:05:37.079Z,4.97
2022-10-19T11:08:13.443Z,4.33
2022-10-19T11:11:08.949Z,3.90
2022-10-19T11:13:51.596Z,4.33
2022-10-19T11:16:30.092Z,4.00
2022-10-19T11:19:18.661Z,3.90
2022-10-19T11:22:06.767Z,4.23
2022-10-19T11:25:03.228Z,4.45
2022-10-19T11:27:58.012Z,4.13
2022-10-19T11:30:41.606Z,3.07
2022-10-19T11:36:42.993Z,2.93
2022-10-19T11:39:33.598Z,2.70
2022-10-19T11:42:19.004Z,3.17
2022-10-19T11:45:27.497Z,2.80
2022-10-19T11:48:10.233Z,2.50
2022-10-19T11:50:54.241Z,2.37
2022-10-19T11:53:43.405Z,2.97
2022-10-19T11:57:01.799Z,3.37
2022-10-19T11:59:41.404Z,2.90
2022-10-19T12:02:39.758Z,2.83
2022-10-19T12:05:45.151Z,2.90
2022-10-19T12:08:41.769Z,3.20
2022-10-19T12:11:32.915Z,3.07
2022-10-19T12:14:22.642Z,2.87
2022-10-19T12:17:01.213Z,2.73
2022-10-19T12:19:41.241Z,3.30
2022-10-19T12:22:21.799Z,3.13
2022-10-19T12:24:59.190Z,3.10
2022-10-19T12:27:38.682Z,3.13
2022-10-19T12:30:23.874Z,2.93
2022-10-19T12:33:15.068Z,2.73
2022-10-19T12:36:07.913Z,2.47
2022-10-19T12:38:46.068Z,2.43
2022-10-19T12:41:53.054Z,2.28
2022-10-19T12:44:31.741Z,2.43
2022-10-19T12:47:22.915Z,2.17
2022-10-19T12:49:59.126Z,2.30
2022-10-19T12:52:42.200Z,3.05
2022-10-19T12:55:15.107Z,2.78
2022-10-19T12:57:56.686Z,2.17
2022-10-19T13:00:59.740Z,2.00
2022-10-19T13:03:38.530Z,2.25
2022-10-19T13:06:15.518Z,2.30
2022-10-19T13:09:15.649Z,2.53
2022-10-19T13:12:16.226Z,2.13
2022-10-19T13:15:01.157Z,2.37
2022-10-19T13:17:34.318Z,1.85
2022-10-19T13:20:13.436Z,2.50
2022-10-19T13:23:00.464Z,1.90
2022-10-19T13:25:35.117Z,2.40
2022-10-19T13:28:09.155Z,2.35
2022-10-19T13:30:42.195Z,2.35
2022-10-19T13:33:31.577Z,2.33
2022-10-19T13:36:08.429Z,2.00
2022-10-19T13:39:02.806Z,1.90
2022-10-19T13:41:38.534Z,2.10
2022-10-19T13:44:15.329Z,2.72
2022-10-19T13:47:03.554Z,2.03
2022-10-19T13:49:58.030Z,1.77
2022-10-19T13:52:51.002Z,1.90
2022-10-19T13:55:27.782Z,1.80
2022-10-19T13:58:02.025Z,1.75
2022-10-19T14:00:53.730Z,1.77
2022-10-19T14:03:35.310Z,1.80
2022-10-19T14:06:28.377Z,1.70
2022-10-19T14:09:21.484Z,1.50
2022-10-19T14:12:04.263Z,2.10
2022-10-19T14:17:27.234Z,1.80
2022-10-19T14:20:00.671Z,1.40
2022-10-19T14:22:34.762Z,1.50
2022-10-19T14:25:21.101Z,1.55
2022-10-19T14:28:06.885Z,1.58
2022-10-19T14:30:39.824Z,1.80
2022-10-19T14:33:17.742Z,1.88
2022-10-19T14:35:51.415Z,1.60
2022-10-19T14:38:35.133Z,1.92
2022-10-19T14:41:37.868Z,1.73
2022-10-19T14:44:39.647Z,2.30
2022-10-19T14:47:23.875Z,3.17
2022-10-19T14:49:57.107Z,2.50
2022-10-19T14:52:39.199Z,1.90
2022-10-19T14:55:18.202Z,2.00
2022-10-19T14:57:53.385Z,2.05
2022-10-19T15:00:27.479Z,2.27
2022-10-19T15:03:04.747Z,1.92
2022-10-19T15:05:46.134Z,2.22
2022-10-19T15:08:39.852Z,2.47
2022-10-19T15:11:29.698Z,2.35
2022-10-19T15:14:07.310Z,2.10
2022-10-19T15:16:51.253Z,2.22
2022-10-19T15:19:27.792Z,2.17
2022-10-19T15:22:21.943Z,2.47
2022-10-19T15:25:07.290Z,2.23
2022-10-19T15:27:47.407Z,2.10
2022-10-19T15:30:25.324Z,2.20
2022-10-19T15:33:01.017Z,2.30
2022-10-19T15:35:36.450Z,2.77
2022-10-19T15:38:27.381Z,4.77
2022-10-19T15:41:03.059Z,3.50
2022-10-19T15:43:46.417Z,2.28
2022-10-19T15:46:33.981Z,2.97
2022-10-19T15:49:15.877Z,3.23
2022-10-19T15:51:49.789Z,2.90
2022-10-19T15:54:23.860Z,3.00
2022-10-19T15:56:57.266Z,3.13
2022-10-19T15:59:29.901Z,3.53
2022-10-19T16:02:02.841Z,3.40
2022-10-19T16:04:35.606Z,3.07
2022-10-19T16:07:14.962Z,3.10
2022-10-19T16:09:47.698Z,3.40
2022-10-19T16:12:21.616Z,3.67
2022-10-19T16:14:54.951Z,3.23
2022-10-19T16:17:28.152Z,3.77
2022-10-19T16:20:00.948Z,3.30
2022-10-19T16:22:33.849Z,3.60
2022-10-19T16:25:06.997Z,4.37
2022-10-19T16:27:40.083Z,4.78
2022-10-19T16:30:13.218Z,4.75
2022-10-19T16:32:49.173Z,3.77
2022-10-19T16:35:23.322Z,3.87
2022-10-19T16:38:04.700Z,4.30
2022-10-19T16:40:38.101Z,3.90
2022-10-19T16:43:12.130Z,4.50
2022-10-19T16:45:46.586Z,4.40
2022-10-19T16:48:24.130Z,5.07
2022-10-19T16:51:12.294Z,4.10
2022-10-19T16:53:45.912Z,4.90
2022-10-19T16:56:19.203Z,4.60
2022-10-19T16:59:05.064Z,5.23
2022-10-19T17:01:37.855Z,5.40
2022-10-19T17:04:15.870Z,5.03
2022-10-19T17:06:48.642Z,5.50
2022-10-19T17:09:41.948Z,4.83
2022-10-19T17:12:17.051Z,5.17
2022-10-19T17:14:51.141Z,5.33
2022-10-19T17:17:23.907Z,5.43
2022-10-19T17:20:01.494Z,6.23
2022-10-19T17:22:34.631Z,4.70
2022-10-19T17:25:08.271Z,5.10
2022-10-19T17:27:41.046Z,5.53
2022-10-19T17:30:14.167Z,6.22
2022-10-19T17:32:46.910Z,6.10
2022-10-19T17:35:19.827Z,5.17
2022-10-19T17:37:52.789Z,5.83
2022-10-19T17:40:25.853Z,5.70
2022-10-19T17:42:58.612Z,5.13
2022-10-19T17:45:31.594Z,5.10
2022-10-19T17:48:04.885Z,5.67
2022-10-19T17:50:37.755Z,5.73
2022-10-19T17:53:10.550Z,5.73
2022-10-19T17:55:43.392Z,6.07
2022-10-19T17:58:16.894Z,5.97
2022-10-19T18:00:57.719Z,6.17
2022-10-19T18:03:32.227Z,6.63
2022-10-19T18:06:10.790Z,5.13
2022-10-19T18:08:47.256Z,5.20
2022-10-19T18:11:21.905Z,5.43
2022-10-19T18:13:57.177Z,5.63
2022-10-19T18:16:32.731Z,5.33
2022-10-19T18:19:06.284Z,5.80
2022-10-19T18:21:41.955Z,5.53
2022-10-19T18:24:19.325Z,5.57
2022-10-19T18:26:52.471Z,5.73
2022-10-19T18:29:26.509Z,5.77
2022-10-19T18:32:01.838Z,5.50
2022-10-19T18:34:34.983Z,5.13
2022-10-19T18:37:07.814Z,5.67
2022-10-19T18:39:40.679Z,5.47
2022-10-19T18:42:14.265Z,5.33
2022-10-19T18:44:47.488Z,5.00
2022-10-19T18:47:21.256Z,5.77
2022-10-19T18:49:54.752Z,5.70
2022-10-19T18:52:27.599Z,6.90
2022-10-19T18:55:01.224Z,8.00
2022-10-19T18:57:34.470Z,5.77
2022-10-19T19:00:07.867Z,5.20
2022-10-19T19:02:46.753Z,6.00
2022-10-19T19:05:20.172Z,7.20
2022-10-19T19:07:55.133Z,6.03
2022-10-19T19:10:27.879Z,5.97
2022-10-19T19:13:01.063Z,6.70
2022-10-19T19:15:33.787Z,6.90
2022-10-19T19:18:06.756Z,6.03
2022-10-19T19:20:42.615Z,5.97
2022-10-19T19:23:15.450Z,5.43
2022-10-19T19:25:48.279Z,5.37
2022-10-19T19:28:21.294Z,5.83
2022-10-19T19:30:54.014Z,6.33
2022-10-19T19:33:26.805Z,6.20
2022-10-19T19:35:59.570Z,5.80
2022-10-19T19:38:32.738Z,5.00
2022-10-19T19:41:13.770Z,4.93
2022-10-19T19:43:46.714Z,5.75
2022-10-19T19:46:20.222Z,5.10
2022-10-19T19:49:01.894Z,5.77
2022-10-19T19:51:35.265Z,5.43
2022-10-19T19:54:08.277Z,5.60
2022-10-19T19:56:42.314Z,6.10
2022-10-19T19:59:15.661Z,5.27
